sensor_id;sensor_type;location;lat;lon;timestamp;pressure;altitude;pressure_sealevel;temperature;humidity
72116;BME280;59991;52.140;5.428;2023-03-20T00:00:35;101965.63;;;8.35;91.63
72116;BME280;59991;52.140;5.428;2023-03-20T00:01:14;101961.31;;;8.34;91.48
72116;BME280;59991;52.140;5.428;2023-03-20T00:01:47;101956.84;;;8.29;90.88
72116;BME280;59991;52.140;5.428;2023-03-20T00:02:21;101966.75;;;8.34;90.75
72116;BME280;59991;52.140;5.428;2023-03-20T00:02:53;101966.75;;;8.34;91.62
72116;BME280;59991;52.140;5.428;2023-03-20T00:03:25;101955.09;;;8.33;91.42
72116;BME280;59991;52.140;5.428;2023-03-20T00:03:56;101961.31;;;8.34;91.69
72116;BME280;59991;52.140;5.428;2023-03-20T00:04:28;101957.31;;;8.31;91.67
72116;BME280;59991;52.140;5.428;2023-03-20T00:05:00;101958.09;;;8.31;91.22
72116;BME280;59991;52.140;5.428;2023-03-20T00:05:31;101959.72;;;8.32;91.42
72116;BME280;59991;52.140;5.428;2023-03-20T00:06:03;101963.53;;;8.31;91.29
72116;BME280;59991;52.140;5.428;2023-03-20T00:06:35;101958.94;;;8.32;91.15
72116;BME280;59991;52.140;5.428;2023-03-20T00:07:07;101968.97;;;8.31;91.62
72116;BME280;59991;52.140;5.428;2023-03-20T00:07:42;101964.66;;;8.30;91.46
72116;BME280;59991;52.140;5.428;2023-03-20T00:08:14;101960.69;;;8.28;91.01
72116;BME280;59991;52.140;5.428;2023-03-20T00:08:47;101971.22;;;8.29;91.78
72116;BME280;59991;52.140;5.428;2023-03-20T00:09:20;101965.78;;;8.29;91.41
72116;BME280;59991;52.140;5.428;2023-03-20T00:09:51;101962.19;;;8.25;91.54
72116;BME280;59991;52.140;5.428;2023-03-20T00:10:31;101966.91;;;8.28;91.29
72116;BME280;59991;52.140;5.428;2023-03-20T00:11:03;101959.47;;;8.25;91.47
72116;BME280;59991;52.140;5.428;2023-03-20T00:11:40;101964.19;;;8.28;91.64
72116;BME280;59991;52.140;5.428;2023-03-20T00:12:23;101960.25;;;8.26;91.82
72116;BME280;59991;52.140;5.428;2023-03-20T00:12:56;101959.91;;;8.27;91.34
72116;BME280;59991;52.140;5.428;2023-03-20T00:13:27;101955.94;;;8.25;91.78
72116;BME280;59991;52.140;5.428;2023-03-20T00:14:01;101964.56;;;8.27;91.67
72116;BME280;59991;52.140;5.428;2023-03-20T00:14:33;101963.78;;;8.26;92.17
72116;BME280;59991;52.140;5.428;2023-03-20T00:15:07;101973.47;;;8.27;91.65
72116;BME280;59991;52.140;5.428;2023-03-20T00:15:47;101969.19;;;8.26;91.77
72116;BME280;59991;52.140;5.428;2023-03-20T00:16:20;101966.03;;;8.24;91.74
72116;BME280;59991;52.140;5.428;2023-03-20T00:16:53;101970.31;;;8.25;91.57
72116;BME280;59991;52.140;5.428;2023-03-20T00:17:24;101970.31;;;8.25;91.98
72116;BME280;59991;52.140;5.428;2023-03-20T00:17:56;101979.28;;;8.26;91.92
72116;BME280;59991;52.140;5.428;2023-03-20T00:18:28;101980.72;;;8.23;91.68
72116;BME280;59991;52.140;5.428;2023-03-20T00:19:00;101984.72;;;8.26;91.96
72116;BME280;59991;52.140;5.428;2023-03-20T00:19:32;101977.22;;;8.23;91.63
72116;BME280;59991;52.140;5.428;2023-03-20T00:20:03;101980.41;;;8.25;91.65
72116;BME280;59991;52.140;5.428;2023-03-20T00:20:35;101978.16;;;8.27;91.68
72116;BME280;59991;52.140;5.428;2023-03-20T00:21:16;101976.44;;;8.22;91.67
72116;BME280;59991;52.140;5.428;2023-03-20T00:21:49;101967.63;;;8.25;91.69
72116;BME280;59991;52.140;5.428;2023-03-20T00:22:21;101968.41;;;8.26;91.95
72116;BME280;59991;52.140;5.428;2023-03-20T00:22:53;101965.22;;;8.24;91.46
72116;BME280;59991;52.140;5.428;2023-03-20T00:23:24;101969.88;;;8.23;92.06
72116;BME280;59991;52.140;5.428;2023-03-20T00:23:57;101965.69;;;8.26;91.15
72116;BME280;59991;52.140;5.428;2023-03-20T00:24:29;101964.09;;;8.25;91.42
72116;BME280;59991;52.140;5.428;2023-03-20T00:25:00;101956.59;;;8.22;91.75
72116;BME280;59991;52.140;5.428;2023-03-20T00:25:32;101960.13;;;8.22;91.66
72116;BME280;59991;52.140;5.428;2023-03-20T00:26:04;101956.59;;;8.22;91.52
72116;BME280;59991;52.140;5.428;2023-03-20T00:26:37;101956.59;;;8.22;91.35
72116;BME280;59991;52.140;5.428;2023-03-20T00:27:13;101968.28;;;8.22;91.05
72116;BME280;59991;52.140;5.428;2023-03-20T00:27:45;101958.19;;;8.23;91.72
72116;BME280;59991;52.140;5.428;2023-03-20T00:28:32;101961.72;;;8.23;91.82
72116;BME280;59991;52.140;5.428;2023-03-20T00:29:14;101957.41;;;8.22;91.24
72116;BME280;59991;52.140;5.428;2023-03-20T00:29:48;101960.13;;;8.22;90.93
72116;BME280;59991;52.140;5.428;2023-03-20T00:30:27;101966.03;;;8.24;91.68
72116;BME280;59991;52.140;5.428;2023-03-20T00:30:59;101957.75;;;8.21;91.60
72116;BME280;59991;52.140;5.428;2023-03-20T00:31:35;101957.41;;;8.22;91.21
72116;BME280;59991;52.140;5.428;2023-03-20T00:32:10;101959.00;;;8.23;91.64
72116;BME280;59991;52.140;5.428;2023-03-20T00:32:43;101957.75;;;8.21;90.63
72116;BME280;59991;52.140;5.428;2023-03-20T00:33:14;101958.53;;;8.21;91.35
72116;BME280;59991;52.140;5.428;2023-03-20T00:33:47;101951.97;;;8.22;90.95
72116;BME280;59991;52.140;5.428;2023-03-20T00:34:20;101956.59;;;8.22;91.44
72116;BME280;59991;52.140;5.428;2023-03-20T00:34:53;101962.84;;;8.22;90.90
72116;BME280;59991;52.140;5.428;2023-03-20T00:35:27;101955.34;;;8.19;91.09
72116;BME280;59991;52.140;5.428;2023-03-20T00:35:59;101955.81;;;8.21;91.25
72116;BME280;59991;52.140;5.428;2023-03-20T00:36:32;101954.69;;;8.22;91.57
72116;BME280;59991;52.140;5.428;2023-03-20T00:37:03;101955.34;;;8.19;91.34
72116;BME280;59991;52.140;5.428;2023-03-20T00:37:35;101952.31;;;8.21;91.06
72116;BME280;59991;52.140;5.428;2023-03-20T00:38:07;101955.81;;;8.21;91.37
72116;BME280;59991;52.140;5.428;2023-03-20T00:38:39;101943.69;;;8.19;91.25
72116;BME280;59991;52.140;5.428;2023-03-20T00:39:10;101948.78;;;8.20;91.49
72116;BME280;59991;52.140;5.428;2023-03-20T00:39:42;101944.47;;;8.19;91.83
72116;BME280;59991;52.140;5.428;2023-03-20T00:40:13;101941.75;;;8.19;91.71
72116;BME280;59991;52.140;5.428;2023-03-20T00:40:45;101943.69;;;8.19;91.33
72116;BME280;59991;52.140;5.428;2023-03-20T00:41:25;101946.75;;;8.17;91.50
72116;BME280;59991;52.140;5.428;2023-03-20T00:42:02;101937.47;;;8.18;91.47
72116;BME280;59991;52.140;5.428;2023-03-20T00:42:36;101934.28;;;8.16;91.27
72116;BME280;59991;52.140;5.428;2023-03-20T00:43:09;101937.00;;;8.16;91.73
72116;BME280;59991;52.140;5.428;2023-03-20T00:43:42;101943.34;;;8.20;91.37
72116;BME280;59991;52.140;5.428;2023-03-20T00:44:55;101940.63;;;8.20;91.14
72116;BME280;59991;52.140;5.428;2023-03-20T00:45:31;101942.56;;;8.20;91.49
72116;BME280;59991;52.140;5.428;2023-03-20T00:46:10;101953.44;;;8.20;91.29
72116;BME280;59991;52.140;5.428;2023-03-20T00:46:43;101948.00;;;8.20;91.24
72116;BME280;59991;52.140;5.428;2023-03-20T00:47:19;101967.81;;;8.20;91.51
72116;BME280;59991;52.140;5.428;2023-03-20T00:47:52;101962.38;;;8.20;91.34
72116;BME280;59991;52.140;5.428;2023-03-20T00:48:23;101959.66;;;8.20;91.54
72116;BME280;59991;52.140;5.428;2023-03-20T00:48:55;101971.97;;;8.18;91.38
72116;BME280;59991;52.140;5.428;2023-03-20T00:49:29;101975.97;;;8.20;92.00
72116;BME280;59991;52.140;5.428;2023-03-20T00:50:13;101968.47;;;8.17;91.54
72116;BME280;59991;52.140;5.428;2023-03-20T00:50:45;101963.84;;;8.18;91.43
72116;BME280;59991;52.140;5.428;2023-03-20T00:51:18;101977.09;;;8.19;91.59
72116;BME280;59991;52.140;5.428;2023-03-20T00:51:49;101967.53;;;8.13;91.48
72116;BME280;59991;52.140;5.428;2023-03-20T00:52:21;101968.00;;;8.15;91.46
72116;BME280;59991;52.140;5.428;2023-03-20T00:52:53;101969.78;;;8.11;91.68
72116;BME280;59991;52.140;5.428;2023-03-20T00:53:25;101971.38;;;8.12;91.41
72116;BME280;59991;52.140;5.428;2023-03-20T00:53:57;101974.56;;;8.14;91.46
72116;BME280;59991;52.140;5.428;2023-03-20T00:54:28;101977.28;;;8.14;91.43
72116;BME280;59991;52.140;5.428;2023-03-20T00:54:59;101975.69;;;8.13;91.72
72116;BME280;59991;52.140;5.428;2023-03-20T00:55:31;101981.91;;;8.14;91.62
72116;BME280;59991;52.140;5.428;2023-03-20T00:56:03;101980.66;;;8.11;91.48
72116;BME280;59991;52.140;5.428;2023-03-20T00:56:39;101987.03;;;8.15;92.14
72116;BME280;59991;52.140;5.428;2023-03-20T00:57:27;101990.88;;;8.14;91.58
72116;BME280;59991;52.140;5.428;2023-03-20T00:58:00;101989.75;;;8.15;91.99
72116;BME280;59991;52.140;5.428;2023-03-20T00:58:32;101986.56;;;8.13;91.59
72116;BME280;59991;52.140;5.428;2023-03-20T00:59:04;101992.00;;;8.13;91.95
72116;BME280;59991;52.140;5.428;2023-03-20T00:59:39;101989.28;;;8.13;92.27
72116;BME280;59991;52.140;5.428;2023-03-20T01:00:50;101993.44;;;8.11;91.88
72116;BME280;59991;52.140;5.428;2023-03-20T01:01:22;101992.97;;;8.09;92.17
72116;BME280;59991;52.140;5.428;2023-03-20T01:01:54;102011.66;;;8.10;92.07
72116;BME280;59991;52.140;5.428;2023-03-20T01:02:28;102012.94;;;8.13;91.67
72116;BME280;59991;52.140;5.428;2023-03-20T01:03:00;102020.28;;;8.12;91.91
72116;BME280;59991;52.140;5.428;2023-03-20T01:03:34;102011.34;;;8.12;91.98
72116;BME280;59991;52.140;5.428;2023-03-20T01:04:10;102021.09;;;8.13;92.05
72116;BME280;59991;52.140;5.428;2023-03-20T01:04:43;102021.09;;;8.13;91.82
72116;BME280;59991;52.140;5.428;2023-03-20T01:05:14;102017.09;;;8.10;92.22
72116;BME280;59991;52.140;5.428;2023-03-20T01:05:47;102007.03;;;8.11;91.85
72116;BME280;59991;52.140;5.428;2023-03-20T01:06:18;102010.88;;;8.10;92.02
72116;BME280;59991;52.140;5.428;2023-03-20T01:06:50;102012.78;;;8.09;91.85
72116;BME280;59991;52.140;5.428;2023-03-20T01:07:23;102021.09;;;8.13;91.82
72116;BME280;59991;52.140;5.428;2023-03-20T01:07:55;102021.09;;;8.13;91.63
72116;BME280;59991;52.140;5.428;2023-03-20T01:08:26;102023.34;;;8.11;92.11
72116;BME280;59991;52.140;5.428;2023-03-20T01:08:58;102022.69;;;8.14;92.12
72116;BME280;59991;52.140;5.428;2023-03-20T01:09:30;102019.97;;;8.14;92.14
72116;BME280;59991;52.140;5.428;2023-03-20T01:10:03;102008.16;;;8.10;92.17
72116;BME280;59991;52.140;5.428;2023-03-20T01:10:34;102010.22;;;8.13;91.55
72116;BME280;59991;52.140;5.428;2023-03-20T01:11:08;102010.53;;;8.11;91.84
72116;BME280;59991;52.140;5.428;2023-03-20T01:11:43;102014.06;;;8.12;91.96
72116;BME280;59991;52.140;5.428;2023-03-20T01:12:15;102022.69;;;8.14;91.85
72116;BME280;59991;52.140;5.428;2023-03-20T01:12:47;102019.97;;;8.14;91.85
72116;BME280;59991;52.140;5.428;2023-03-20T01:13:28;102012.13;;;8.12;91.54
72116;BME280;59991;52.140;5.428;2023-03-20T01:14:00;102011.81;;;8.14;91.87
72116;BME280;59991;52.140;5.428;2023-03-20T01:14:32;102015.66;;;8.13;91.59
72116;BME280;59991;52.140;5.428;2023-03-20T01:15:14;102009.09;;;8.14;91.51
72116;BME280;59991;52.140;5.428;2023-03-20T01:15:47;101997.09;;;8.15;91.74
72116;BME280;59991;52.140;5.428;2023-03-20T01:16:22;102002.53;;;8.15;91.72
72116;BME280;59991;52.140;5.428;2023-03-20T01:16:54;101988.16;;;8.14;91.22
72116;BME280;59991;52.140;5.428;2023-03-20T01:17:27;101984.63;;;8.14;91.36
72116;BME280;59991;52.140;5.428;2023-03-20T01:17:59;101990.06;;;8.14;91.17
72116;BME280;59991;52.140;5.428;2023-03-20T01:18:31;101980.66;;;8.11;91.25
72116;BME280;59991;52.140;5.428;2023-03-20T01:19:02;101977.94;;;8.11;91.21
72116;BME280;59991;52.140;5.428;2023-03-20T01:19:34;101986.56;;;8.13;91.21
72116;BME280;59991;52.140;5.428;2023-03-20T01:20:18;101985.75;;;8.13;90.85
72116;BME280;59991;52.140;5.428;2023-03-20T01:20:51;101991.66;;;8.15;91.27
72116;BME280;59991;52.140;5.428;2023-03-20T01:21:24;101994.72;;;8.13;91.12
72116;BME280;59991;52.140;5.428;2023-03-20T01:21:55;101988.16;;;8.14;91.59
72116;BME280;59991;52.140;5.428;2023-03-20T01:22:27;101991.53;;;8.11;91.02
72116;BME280;59991;52.140;5.428;2023-03-20T01:22:58;101996.63;;;8.13;91.37
72116;BME280;59991;52.140;5.428;2023-03-20T01:23:30;101996.63;;;8.13;90.98
72116;BME280;59991;52.140;5.428;2023-03-20T01:24:01;101996.97;;;8.11;91.06
72116;BME280;59991;52.140;5.428;2023-03-20T01:24:33;102001.25;;;8.12;90.72
72116;BME280;59991;52.140;5.428;2023-03-20T01:25:04;102009.88;;;8.14;90.62
72116;BME280;59991;52.140;5.428;2023-03-20T01:25:36;102018.03;;;8.14;90.83
72116;BME280;59991;52.140;5.428;2023-03-20T01:26:41;102009.56;;;8.16;90.83
72116;BME280;59991;52.140;5.428;2023-03-20T01:27:16;102011.00;;;8.13;90.43
72116;BME280;59991;52.140;5.428;2023-03-20T01:27:51;102013.41;;;8.15;90.09
72116;BME280;59991;52.140;5.428;2023-03-20T01:28:23;102008.63;;;8.12;89.65
72116;BME280;59991;52.140;5.428;2023-03-20T01:28:54;102007.03;;;8.11;90.39
72116;BME280;59991;52.140;5.428;2023-03-20T01:29:26;102003.97;;;8.12;89.75
72116;BME280;59991;52.140;5.428;2023-03-20T01:29:57;102006.69;;;8.12;89.58
72116;BME280;59991;52.140;5.428;2023-03-20T01:30:31;101991.41;;;8.08;89.44
72116;BME280;59991;52.140;5.428;2023-03-20T01:31:02;102000.13;;;8.13;89.65
72116;BME280;59991;52.140;5.428;2023-03-20T01:31:34;101996.97;;;8.11;89.56
72116;BME280;59991;52.140;5.428;2023-03-20T01:32:14;101990.72;;;8.11;89.53
72116;BME280;59991;52.140;5.428;2023-03-20T01:32:46;101999.34;;;8.13;89.48
72116;BME280;59991;52.140;5.428;2023-03-20T01:33:21;102001.25;;;8.12;89.15
72116;BME280;59991;52.140;5.428;2023-03-20T01:33:52;101996.63;;;8.13;89.44
72116;BME280;59991;52.140;5.428;2023-03-20T01:34:24;101996.16;;;8.11;89.39
72116;BME280;59991;52.140;5.428;2023-03-20T01:34:55;101998.56;;;8.12;89.33
72116;BME280;59991;52.140;5.428;2023-03-20T01:35:27;102001.59;;;8.11;89.67
72116;BME280;59991;52.140;5.428;2023-03-20T01:35:59;102001.94;;;8.09;89.61
72116;BME280;59991;52.140;5.428;2023-03-20T01:36:31;102007.03;;;8.11;89.55
72116;BME280;59991;52.140;5.428;2023-03-20T01:37:10;102003.19;;;8.12;89.22
72116;BME280;59991;52.140;5.428;2023-03-20T01:37:44;102006.22;;;8.10;89.45
72116;BME280;59991;52.140;5.428;2023-03-20T01:38:22;102005.09;;;8.11;89.79
72116;BME280;59991;52.140;5.428;2023-03-20T01:38:56;102014.38;;;8.10;89.25
72116;BME280;59991;52.140;5.428;2023-03-20T01:39:34;102006.69;;;8.12;88.94
72116;BME280;59991;52.140;5.428;2023-03-20T01:41:15;102011.66;;;8.10;89.43
72116;BME280;59991;52.140;5.428;2023-03-20T01:41:48;102000.00;;;8.10;89.00
72116;BME280;59991;52.140;5.428;2023-03-20T01:42:21;101999.22;;;8.09;89.15
72116;BME280;59991;52.140;5.428;2023-03-20T01:42:52;101991.75;;;8.06;88.82
72116;BME280;59991;52.140;5.428;2023-03-20T01:43:24;101992.97;;;8.09;89.26
72116;BME280;59991;52.140;5.428;2023-03-20T01:43:56;101990.63;;;8.07;89.11
72116;BME280;59991;52.140;5.428;2023-03-20T01:44:30;101988.69;;;8.08;89.92
72116;BME280;59991;52.140;5.428;2023-03-20T01:45:14;101987.13;;;8.07;89.64
72116;BME280;59991;52.140;5.428;2023-03-20T01:46:08;101986.00;;;8.08;89.92
72116;BME280;59991;52.140;5.428;2023-03-20T01:46:44;101983.59;;;8.06;89.32
72116;BME280;59991;52.140;5.428;2023-03-20T01:47:19;101994.91;;;8.08;89.82
72116;BME280;59991;52.140;5.428;2023-03-20T01:47:51;101999.91;;;8.06;89.65
72116;BME280;59991;52.140;5.428;2023-03-20T01:48:24;101992.53;;;8.07;89.38
72116;BME280;59991;52.140;5.428;2023-03-20T01:49:07;101995.91;;;8.04;89.48
72116;BME280;59991;52.140;5.428;2023-03-20T01:51:05;102002.94;;;8.05;89.33
72116;BME280;59991;52.140;5.428;2023-03-20T01:51:36;101998.31;;;8.05;88.74
72116;BME280;59991;52.140;5.428;2023-03-20T01:52:08;102002.16;;;8.04;88.92
72116;BME280;59991;52.140;5.428;2023-03-20T01:52:39;101988.91;;;8.03;89.19
72116;BME280;59991;52.140;5.428;2023-03-20T01:53:14;101996.72;;;8.04;88.98
72116;BME280;59991;52.140;5.428;2023-03-20T01:53:56;101996.25;;;8.02;88.92
72116;BME280;59991;52.140;5.428;2023-03-20T01:54:32;102000.56;;;8.03;89.15
72116;BME280;59991;52.140;5.428;2023-03-20T01:55:04;101993.53;;;8.02;88.93
72116;BME280;59991;52.140;5.428;2023-03-20T01:55:37;101988.91;;;8.03;88.98
72116;BME280;59991;52.140;5.428;2023-03-20T01:56:11;101992.72;;;8.02;88.60
72116;BME280;59991;52.140;5.428;2023-03-20T01:57:19;101984.78;;;7.96;88.73
72116;BME280;59991;52.140;5.428;2023-03-20T01:57:54;101991.47;;;7.99;88.65
72116;BME280;59991;52.140;5.428;2023-03-20T01:58:33;101979.00;;;7.98;88.29
72116;BME280;59991;52.140;5.428;2023-03-20T01:59:20;101977.88;;;7.99;88.50
72116;BME280;59991;52.140;5.428;2023-03-20T01:59:58;101979.81;;;7.98;88.94
72116;BME280;59991;52.140;5.428;2023-03-20T02:00:33;101984.13;;;8.00;88.64
72116;BME280;59991;52.140;5.428;2023-03-20T02:01:08;101976.31;;;7.98;88.96
72116;BME280;59991;52.140;5.428;2023-03-20T02:01:42;101975.84;;;7.96;89.00
72116;BME280;59991;52.140;5.428;2023-03-20T02:02:20;101980.59;;;7.99;88.50
72116;BME280;59991;52.140;5.428;2023-03-20T02:02:52;101968.47;;;7.96;88.53
72116;BME280;59991;52.140;5.428;2023-03-20T02:03:25;101969.28;;;7.97;89.06
72116;BME280;59991;52.140;5.428;2023-03-20T02:03:57;101963.06;;;7.96;88.81
72116;BME280;59991;52.140;5.428;2023-03-20T02:04:32;101971.53;;;7.95;88.46
72116;BME280;59991;52.140;5.428;2023-03-20T02:05:09;101975.84;;;7.96;88.60
72116;BME280;59991;52.140;5.428;2023-03-20T02:05:42;101968.34;;;7.93;88.88
72116;BME280;59991;52.140;5.428;2023-03-20T02:06:14;101980.81;;;7.94;88.42
72116;BME280;59991;52.140;5.428;2023-03-20T02:06:46;101975.38;;;7.94;88.36
72116;BME280;59991;52.140;5.428;2023-03-20T02:07:20;101976.81;;;7.91;88.40
72116;BME280;59991;52.140;5.428;2023-03-20T02:08:23;101985.09;;;7.95;88.41
72116;BME280;59991;52.140;5.428;2023-03-20T02:08:57;101996.75;;;7.95;88.79
72116;BME280;59991;52.140;5.428;2023-03-20T02:09:28;101988.47;;;7.92;88.41
72116;BME280;59991;52.140;5.428;2023-03-20T02:10:02;101994.72;;;7.92;88.15
72116;BME280;59991;52.140;5.428;2023-03-20T02:10:34;101991.84;;;7.89;88.56
72116;BME280;59991;52.140;5.428;2023-03-20T02:11:06;101993.44;;;7.90;88.42
72116;BME280;59991;52.140;5.428;2023-03-20T02:11:39;101998.53;;;7.91;88.16
72116;BME280;59991;52.140;5.428;2023-03-20T02:12:12;102000.13;;;7.92;88.23
72116;BME280;59991;52.140;5.428;2023-03-20T02:12:44;101993.44;;;7.90;88.10
72116;BME280;59991;52.140;5.428;2023-03-20T02:13:18;101991.53;;;7.90;87.86
72116;BME280;59991;52.140;5.428;2023-03-20T02:13:52;101984.50;;;7.89;88.09
72116;BME280;59991;52.140;5.428;2023-03-20T02:14:25;101982.16;;;7.88;88.41
72116;BME280;59991;52.140;5.428;2023-03-20T02:14:57;101979.06;;;7.89;88.09
72116;BME280;59991;52.140;5.428;2023-03-20T02:15:30;101984.97;;;7.91;87.93
72116;BME280;59991;52.140;5.428;2023-03-20T02:16:03;101976.81;;;7.91;88.38
72116;BME280;59991;52.140;5.428;2023-03-20T02:16:35;101975.22;;;7.90;88.20
72116;BME280;59991;52.140;5.428;2023-03-20T02:17:08;101976.34;;;7.89;87.90
72116;BME280;59991;52.140;5.428;2023-03-20T02:17:40;101981.47;;;7.91;88.30
72116;BME280;59991;52.140;5.428;2023-03-20T02:18:12;101979.06;;;7.89;88.10
72116;BME280;59991;52.140;5.428;2023-03-20T02:18:47;101979.06;;;7.89;88.00
72116;BME280;59991;52.140;5.428;2023-03-20T02:19:27;101973.53;;;7.86;88.30
72116;BME280;59991;52.140;5.428;2023-03-20T02:21:00;101984.38;;;7.86;88.08
72116;BME280;59991;52.140;5.428;2023-03-20T02:22:02;101990.94;;;7.85;88.29
72116;BME280;59991;52.140;5.428;2023-03-20T02:25:36;101992.06;;;7.84;88.66
72116;BME280;59991;52.140;5.428;2023-03-20T02:33:23;101962.38;;;7.79;88.23
72116;BME280;59991;52.140;5.428;2023-03-20T02:36:18;101968.47;;;7.76;89.19
72116;BME280;59991;52.140;5.428;2023-03-20T02:40:02;101965.94;;;7.71;88.69
72116;BME280;59991;52.140;5.428;2023-03-20T02:41:01;101971.38;;;7.71;88.53
72116;BME280;59991;52.140;5.428;2023-03-20T02:41:49;101969.34;;;7.68;88.67
72116;BME280;59991;52.140;5.428;2023-03-20T02:42:40;101971.72;;;7.69;88.58
72116;BME280;59991;52.140;5.428;2023-03-20T02:44:45;101970.94;;;7.69;89.38
72116;BME280;59991;52.140;5.428;2023-03-20T02:45:50;101980.22;;;7.68;89.54
72116;BME280;59991;52.140;5.428;2023-03-20T02:46:34;101969.19;;;7.64;89.42
72116;BME280;59991;52.140;5.428;2023-03-20T02:48:02;101976.56;;;7.63;88.99
72116;BME280;59991;52.140;5.428;2023-03-20T02:48:46;101973.84;;;7.63;89.41
72116;BME280;59991;52.140;5.428;2023-03-20T02:50:13;101970.31;;;7.63;88.70
72116;BME280;59991;52.140;5.428;2023-03-20T02:51:47;101978.47;;;7.63;89.16
72116;BME280;59991;52.140;5.428;2023-03-20T02:52:19;101983.09;;;7.62;88.97
72116;BME280;59991;52.140;5.428;2023-03-20T02:53:13;101974.50;;;7.60;88.85
72116;BME280;59991;52.140;5.428;2023-03-20T02:55:43;101960.91;;;7.60;89.53
72116;BME280;59991;52.140;5.428;2023-03-20T02:56:30;101964.75;;;7.59;89.31
72116;BME280;59991;52.140;5.428;2023-03-20T02:57:12;101956.13;;;7.57;89.51
72116;BME280;59991;52.140;5.428;2023-03-20T02:59:21;101953.91;;;7.59;89.44
72116;BME280;59991;52.140;5.428;2023-03-20T03:00:56;101950.72;;;7.57;88.85
72116;BME280;59991;52.140;5.428;2023-03-20T03:01:43;101939.84;;;7.57;89.54
72116;BME280;59991;52.140;5.428;2023-03-20T03:02:21;101938.25;;;7.56;89.39
72116;BME280;59991;52.140;5.428;2023-03-20T03:03:09;101940.97;;;7.56;89.16
72116;BME280;59991;52.140;5.428;2023-03-20T03:03:46;101940.50;;;7.54;88.69
72116;BME280;59991;52.140;5.428;2023-03-20T03:04:23;101928.75;;;7.50;88.84
72116;BME280;59991;52.140;5.428;2023-03-20T03:04:59;101933.81;;;7.52;88.65
72116;BME280;59991;52.140;5.428;2023-03-20T03:05:46;101924.88;;;7.51;88.87
72116;BME280;59991;52.140;5.428;2023-03-20T03:06:23;101917.88;;;7.50;89.25
72116;BME280;59991;52.140;5.428;2023-03-20T03:06:57;101916.63;;;7.48;88.60
72116;BME280;59991;52.140;5.428;2023-03-20T03:07:31;101912.09;;;7.52;88.74
72116;BME280;59991;52.140;5.428;2023-03-20T03:08:05;101917.88;;;7.50;89.27
72116;BME280;59991;52.140;5.428;2023-03-20T03:08:42;101909.28;;;7.48;89.29
72116;BME280;59991;52.140;5.428;2023-03-20T03:09:20;101902.25;;;7.47;88.87
72116;BME280;59991;52.140;5.428;2023-03-20T03:09:58;101898.44;;;7.48;88.95
72116;BME280;59991;52.140;5.428;2023-03-20T03:10:37;101896.19;;;7.50;88.83
72116;BME280;59991;52.140;5.428;2023-03-20T03:11:10;101895.25;;;7.46;89.15
72116;BME280;59991;52.140;5.428;2023-03-20T03:11:53;101895.38;;;7.50;89.25
72116;BME280;59991;52.140;5.428;2023-03-20T03:12:30;101893.47;;;7.50;89.58
72116;BME280;59991;52.140;5.428;2023-03-20T03:13:05;101899.88;;;7.46;88.53
72116;BME280;59991;52.140;5.428;2023-03-20T03:13:45;101895.72;;;7.48;88.91
72116;BME280;59991;52.140;5.428;2023-03-20T03:14:42;101906.56;;;7.48;88.59
72116;BME280;59991;52.140;5.428;2023-03-20T03:15:26;101911.53;;;7.46;88.50
72116;BME280;59991;52.140;5.428;2023-03-20T03:16:05;101908.03;;;7.46;89.15
72116;BME280;59991;52.140;5.428;2023-03-20T03:16:39;101908.81;;;7.46;88.73
72116;BME280;59991;52.140;5.428;2023-03-20T03:17:12;101907.22;;;7.45;88.86
72116;BME280;59991;52.140;5.428;2023-03-20T03:17:46;101908.03;;;7.46;88.97
72116;BME280;59991;52.140;5.428;2023-03-20T03:18:22;101911.84;;;7.45;89.47
72116;BME280;59991;52.140;5.428;2023-03-20T03:19:02;101907.56;;;7.44;88.84
72116;BME280;59991;52.140;5.428;2023-03-20T03:19:37;101907.56;;;7.44;89.05
72116;BME280;59991;52.140;5.428;2023-03-20T03:20:29;101907.22;;;7.45;89.20
72116;BME280;59991;52.140;5.428;2023-03-20T03:21:04;101913.78;;;7.44;88.42
72116;BME280;59991;52.140;5.428;2023-03-20T03:21:39;101908.19;;;7.41;89.07
72116;BME280;59991;52.140;5.428;2023-03-20T03:22:11;101913.16;;;7.39;88.73
72116;BME280;59991;52.140;5.428;2023-03-20T03:22:42;101912.84;;;7.40;88.77
72116;BME280;59991;52.140;5.428;2023-03-20T03:23:31;101913.63;;;7.41;88.79
72116;BME280;59991;52.140;5.428;2023-03-20T03:24:05;101915.56;;;7.40;89.12
72116;BME280;59991;52.140;5.428;2023-03-20T03:24:42;101919.84;;;7.41;88.71
72116;BME280;59991;52.140;5.428;2023-03-20T03:25:14;101913.16;;;7.39;88.55
72116;BME280;59991;52.140;5.428;2023-03-20T03:25:45;101917.47;;;7.40;88.75
72116;BME280;59991;52.140;5.428;2023-03-20T03:26:25;101929.25;;;7.44;88.43
72116;BME280;59991;52.140;5.428;2023-03-20T03:27:00;101922.56;;;7.41;88.65
72116;BME280;59991;52.140;5.428;2023-03-20T03:27:40;101928.78;;;7.42;88.24
72116;BME280;59991;52.140;5.428;2023-03-20T03:28:28;101933.09;;;7.43;88.70
72116;BME280;59991;52.140;5.428;2023-03-20T03:29:13;101923.69;;;7.40;88.55
72116;BME280;59991;52.140;5.428;2023-03-20T03:29:57;101922.91;;;7.40;88.73
72116;BME280;59991;52.140;5.428;2023-03-20T03:30:32;101922.09;;;7.39;88.68
72116;BME280;59991;52.140;5.428;2023-03-20T03:31:12;101923.69;;;7.40;88.56
72116;BME280;59991;52.140;5.428;2023-03-20T03:31:45;101922.09;;;7.39;88.19
72116;BME280;59991;52.140;5.428;2023-03-20T03:33:24;101916.19;;;7.37;88.45
72116;BME280;59991;52.140;5.428;2023-03-20T03:33:59;101915.41;;;7.37;88.28
72116;BME280;59991;52.140;5.428;2023-03-20T03:34:32;101909.19;;;7.36;88.46
72116;BME280;59991;52.140;5.428;2023-03-20T03:35:05;101908.06;;;7.37;88.55
72116;BME280;59991;52.140;5.428;2023-03-20T03:35:38;101910.78;;;7.37;89.06
72116;BME280;59991;52.140;5.428;2023-03-20T03:36:39;101914.59;;;7.36;88.29
72116;BME280;59991;52.140;5.428;2023-03-20T03:37:28;101915.25;;;7.33;88.57
72116;BME280;59991;52.140;5.428;2023-03-20T03:38:17;101913.66;;;7.32;88.34
72116;BME280;59991;52.140;5.428;2023-03-20T03:40:59;101902.38;;;7.30;88.47